• Join FlightAware (Why Join?)
  • Login
  • US Flag 
09:01PM EDT


 

Airport Tracker/Info


-or-


 

Live Flight TrackerFlight Track Log ✈ N577XW ✈ 15-Jun-2013 ✈ KTUL - KJKA

Flight Track Log - Related Links

Times and Time Zones

All times are in EDT time to prevent confusion due to time zone crossing. See the N577XW flight status page for this flight to view local times or setup timezone preferences in your user account.

Time Position Orientation Groundspeed Altitude Reporting Facility
EDT Latitude Longitude Course Direction KTS MPH feet Rate Location/Type
02:41PM 36.1858 -95.9008 128° Southeast 156 180 1,100  Level Kansas City Center
02:42PM 36.1400 -95.8550 141° Southeast 228 262 4,300 2,460 Climbing Kansas City Center
02:43PM 36.1364 -95.8344 102° East 223 257 5,000 2,700 Climbing Kansas City Center
02:43PM 36.1303 -95.7658 96° East 255 293 7,000 2,520 Climbing Kansas City Center
02:44PM 36.1272 -95.7322 96° East 243 280 7,700 2,040 Climbing Kansas City Center
02:45PM 36.1139 -95.6422 100° East 260 299 9,900 1,920 Climbing Kansas City Center
02:46PM 36.0997 -95.5494 101° East 272 313 11,700 1,440 Climbing Kansas City Center
02:47PM 35.7577 -95.2052 128° Southeast  Level Estimated
02:47PM 36.0539 -95.4664 124° Southeast 301 346 12,900  Level Kansas City Center
02:48PM 36.0019 -95.3833 128° Southeast 305 351 14,400 1,500 Climbing Kansas City Center
02:49PM 35.9467 -95.3033 130° Southeast 306 352 16,100 1,560 Climbing Kansas City Center
02:50PM 35.8950 -95.2242 129° Southeast 302 348 17,700 1,380 Climbing Kansas City Center
02:51PM 35.8314 -95.1306 130° Southeast 298 343 18,900 960 Climbing Kansas City Center
02:52PM 35.7747 -95.0425 128° Southeast 321 369 19,700 780 Climbing Kansas City Center
02:53PM 35.7158 -94.9542 129° Southeast 332 382 20,600 780 Climbing Kansas City Center
02:54PM 35.6569 -94.8642 129° Southeast 338 389 21,400 780 Climbing Kansas City Center
02:55PM 35.6181 -94.8161 135° Southeast 333 383 21,900 780 Climbing Memphis Center
02:56PM 35.5567 -94.7233 129° Southeast 339 390 22,700 780 Climbing Memphis Center
02:57PM 35.4975 -94.6311 128° Southeast 344 396 23,500 840 Climbing Memphis Center
02:58PM 35.4336 -94.5411 131° Southeast 344 396 24,400 840 Climbing Memphis Center
02:59PM 35.3700 -94.4464 129° Southeast 344 396 25,200 780 Climbing Memphis Center
03:00PM 35.3022 -94.3489 130° Southeast 356 410 26,000 780 Climbing Memphis Center
03:01PM 35.2364 -94.2542 130° Southeast 361 415 26,800 780 Climbing Memphis Center
03:02PM 35.1706 -94.1572 130° Southeast 367 422 27,600 780 Climbing Memphis Center
03:03PM 35.1028 -94.0578 130° Southeast 367 422 28,400 840 Climbing Memphis Center
03:04PM 35.0347 -93.9608 131° Southeast 367 422 29,300 840 Climbing Memphis Center
03:05PM 34.9686 -93.8617 129° Southeast 372 428 30,100 780 Climbing Memphis Center
03:06PM 34.8983 -93.7625 131° Southeast 378 435 30,900 780 Climbing Memphis Center
03:07PM 34.8281 -93.6636 131° Southeast 378 435 31,700 780 Climbing Memphis Center
03:08PM 34.7489 -93.5747 137° Southeast 378 435 32,500 780 Climbing Memphis Center
03:09PM 34.6678 -93.4883 139° Southeast 383 441 33,300 780 Climbing Memphis Center
03:10PM 34.6014 -93.3875 129° Southeast 388 447 34,100 660 Climbing Memphis Center
03:11PM 34.5308 -93.2867 130° Southeast 388 447 34,700 600 Climbing Memphis Center
03:12PM 34.4600 -93.1858 130° Southeast 393 452 35,300 540 Climbing Memphis Center
03:13PM 34.3872 -93.0853 131° Southeast 399 459 35,800 540 Climbing Memphis Center
03:14PM 34.3103 -92.9697 129° Southeast 393 452 36,400 600 Climbing Memphis Center
03:15PM 34.2372 -92.8669 131° Southeast 393 452 37,000 300 Climbing Memphis Center
03:16PM 34.1642 -92.7619 130° Southeast 393 452 37,000  Level Memphis Center
03:17PM 34.0931 -92.6647 131° Southeast 403 464 37,000  Level Memphis Center
03:18PM 34.0075 -92.5447 131° Southeast 424 488 37,000  Level Memphis Center
03:19PM 33.9403 -92.4478 130° Southeast 424 488 37,000  Level Memphis Center
03:20PM 33.8628 -92.3358 130° Southeast 424 488 37,000  Level Memphis Center
03:21PM 33.7789 -92.2242 132° Southeast 429 494 37,000  Level Memphis Center
03:22PM 33.6992 -92.1125 131° Southeast 434 499 37,000  Level Memphis Center
03:23PM 33.6194 -92.0011 131° Southeast 434 499 37,000  Level Memphis Center
03:24PM 33.5414 -91.8925 131° Southeast 439 505 37,000  Level Memphis Center
03:25PM 33.4633 -91.7842 131° Southeast 439 505 37,000  Level Memphis Center
03:26PM 33.3728 -91.6731 134° Southeast 439 505 37,000  Level Memphis Center
03:27PM 33.2986 -91.5628 129° Southeast 439 505 37,000  Level Memphis Center
03:28PM 33.2058 -91.4447 133° Southeast 439 505 37,000  Level Memphis Center
03:29PM 33.1275 -91.3372 131° Southeast 439 505 37,000  Level Memphis Center
03:30PM 33.0489 -91.2272 130° Southeast 439 505 37,000  Level Memphis Center
03:31PM 32.9703 -91.1200 131° Southeast 439 505 37,000  Level Memphis Center
03:32PM 32.8872 -91.0128 133° Southeast 439 505 37,000  Level Memphis Center
03:33PM 32.8086 -90.9036 131° Southeast 439 505 37,000  Level Memphis Center
03:34PM 32.7256 -90.7944 132° Southeast 434 499 37,000 -240 Level Memphis Center
03:35PM 32.6464 -90.6881 131° Southeast 434 499 36,600 -900 Descending Memphis Center
03:36PM 32.5631 -90.5767 132° Southeast 440 506 35,300 -1,440 Descending Memphis Center
03:37PM 32.4819 -90.4681 132° Southeast 440 506 33,800 -1,440 Descending Memphis Center
03:38PM 32.4025 -90.3597 131° Southeast 440 506 32,500 -1,260 Descending Memphis Center
03:39PM 32.3275 -90.2639 133° Southeast 440 506 31,300 -1,200 Descending Memphis Center
03:40PM 32.2458 -90.1558 132° Southeast 440 506 30,100 -1,500 Descending Memphis Center
03:41PM 32.1706 -90.0531 131° Southeast 435 501 28,400 -2,460 Descending Memphis Center
03:42PM 32.0931 -89.9528 132° Southeast 425 489 25,200 -2,640 Descending Memphis Center
03:43PM 32.0175 -89.8550 132° Southeast 413 475 23,200 -1,140 Descending Memphis Center
03:44PM 31.9461 -89.7650 133° Southeast 399 459 23,000 -120 Descending Memphis Center
03:45PM 31.8747 -89.6700 131° Southeast 389 448 23,000  Level Memphis Center
03:45PM 31.8292 -89.6136 134° Southeast 388 447 23,000  Level Houston Center
03:46PM 31.7569 -89.5194 132° Southeast 389 448 23,000  Level Houston Center
03:47PM 31.6853 -89.4281 133° Southeast 383 441 23,000  Level Houston Center
03:48PM 31.6128 -89.3347 132° Southeast 386 444 23,000  Level Houston Center
03:49PM 31.5400 -89.2425 133° Southeast 385 443 23,000 -300 Level Houston Center
03:50PM 31.4531 -89.1317 133° Southeast 386 444 22,500 -1,080 Descending Houston Center
03:51PM 31.3814 -89.0392 132° Southeast 386 444 20,900 -1,620 Descending Houston Center
03:52PM 31.3106 -88.9500 133° Southeast 377 434 19,300 -1,560 Descending Houston Center
03:53PM 31.2406 -88.8606 132° Southeast 374 430 17,700 -1,500 Descending Houston Center
03:54PM 31.1733 -88.7747 132° Southeast 363 418 16,200 -1,380 Descending Houston Center
03:56PM 31.1081 -88.6936 133° Southeast 348 400 14,900 -1,260 Descending Houston Center
03:57PM 31.0328 -88.5969 132° Southeast 339 390 13,700 -960 Descending Houston Center
03:58PM 30.9700 -88.5183 133° Southeast 335 386 13,000 -780 Descending Houston Center
03:59PM 30.9094 -88.4417 133° Southeast 328 377 12,200 -1,020 Descending Houston Center
04:00PM 30.8503 -88.3669 133° Southeast 321 369 11,000 -1,260 Descending Houston Center
04:01PM 30.7936 -88.2981 134° Southeast 302 348 9,700 -1,500 Descending Houston Center
04:02PM 30.7314 -88.2181 132° Southeast 281 323 8,000 -1,380 Descending Houston Center
04:03PM 30.6797 -88.1536 133° Southeast 274 315 6,900 -1,200 Descending Houston Center
04:04PM 30.6308 -88.0922 133° Southeast 263 303 5,600 -900 Descending Houston Center
04:05PM 30.5794 -88.0297 134° Southeast 266 306 5,100 -300 Descending Houston Center
04:06PM 30.5303 -87.9681 133° Southeast 263 303 5,000 -840 Descending Houston Center
04:07PM 30.4853 -87.9106 132° Southeast 250 288 3,500 -1,440 Descending Houston Center
04:08PM 30.4406 -87.8536 132° Southeast 244 281 2,100 -1,020 Descending Houston Center
04:09PM 30.3892 -87.7950 135° Southeast 229 264 1,500 -300 Descending Houston Center
04:10PM 30.3386 -87.7833 169° South 198 228 1,500  Level Houston Center
04:11PM 30.2947 -87.7728 168° South 178 205 1,500  Level Houston Center